createdAt,value
2017-07-16T00:01:16.066Z,10.90
2017-07-16T00:03:43.187Z,7.90
2017-07-16T00:06:09.534Z,9.17
2017-07-16T00:08:35.898Z,7.20
2017-07-16T00:11:02.251Z,9.00
2017-07-16T00:13:28.586Z,7.13
2017-07-16T00:15:54.940Z,10.43
2017-07-16T00:18:36.560Z,9.07
2017-07-16T00:21:03.683Z,10.13
2017-07-16T00:23:30.026Z,9.70
2017-07-16T00:25:57.142Z,7.37
2017-07-16T00:28:23.474Z,9.80
2017-07-16T00:30:49.813Z,11.23
2017-07-16T00:33:16.125Z,9.60
2017-07-16T00:35:43.351Z,13.60
2017-07-16T00:38:09.660Z,10.93
2017-07-16T00:40:36.033Z,11.87
2017-07-16T00:43:02.380Z,10.57
2017-07-16T00:45:28.751Z,11.60
2017-07-16T00:47:55.129Z,8.90
2017-07-16T00:50:21.461Z,11.67
2017-07-16T00:52:47.779Z,6.33
2017-07-16T00:55:14.118Z,7.90
2017-07-16T00:57:40.479Z,7.77
2017-07-16T01:00:06.846Z,7.73
2017-07-16T01:02:33.180Z,11.03
2017-07-16T01:04:59.552Z,9.63
2017-07-16T01:07:25.918Z,8.33
2017-07-16T01:09:52.273Z,8.47
2017-07-16T01:12:18.618Z,8.03
2017-07-16T01:14:44.983Z,12.87
2017-07-16T01:17:12.125Z,8.07
2017-07-16T01:19:39.229Z,15.87
2017-07-16T01:22:05.562Z,9.87
2017-07-16T01:24:31.956Z,8.70
2017-07-16T01:26:58.304Z,7.47
2017-07-16T01:29:24.648Z,10.43
2017-07-16T01:31:51.004Z,6.50
2017-07-16T01:34:17.355Z,8.03
2017-07-16T01:36:44.933Z,7.40
2017-07-16T01:39:11.304Z,12.93
2017-07-16T01:41:37.684Z,8.57
2017-07-16T01:44:04.089Z,10.63
2017-07-16T01:46:30.498Z,8.10
2017-07-16T01:48:56.853Z,8.67
2017-07-16T01:51:23.248Z,11.73
2017-07-16T01:53:49.722Z,10.80
2017-07-16T01:56:16.835Z,8.07
2017-07-16T01:58:43.938Z,17.50
2017-07-16T02:01:10.362Z,8.17
2017-07-16T02:03:36.781Z,9.90
2017-07-16T02:06:03.873Z,6.63
2017-07-16T02:08:30.222Z,8.20
2017-07-16T02:10:56.616Z,6.27
2017-07-16T02:13:22.957Z,8.03
2017-07-16T02:15:49.514Z,8.60
2017-07-16T02:18:15.849Z,9.63
2017-07-16T02:20:42.231Z,11.03
2017-07-16T02:23:08.645Z,7.70
2017-07-16T02:25:34.974Z,11.17
2017-07-16T02:28:02.042Z,9.93
2017-07-16T02:30:28.395Z,11.50
2017-07-16T02:32:54.759Z,7.73
2017-07-16T02:35:21.168Z,8.40
2017-07-16T02:37:47.541Z,11.80
2017-07-16T02:40:13.891Z,7.13
2017-07-16T02:42:40.244Z,9.87
2017-07-16T02:45:06.618Z,10.10
2017-07-16T02:47:33.003Z,11.93
2017-07-16T02:49:59.333Z,15.93
2017-07-16T02:52:25.698Z,12.03
2017-07-16T02:54:52.098Z,8.90
2017-07-16T02:57:18.464Z,6.77
2017-07-16T02:59:45.539Z,12.03
2017-07-16T03:02:11.905Z,9.53
2017-07-16T03:04:38.407Z,6.40
2017-07-16T03:07:04.757Z,7.73
2017-07-16T03:09:31.105Z,6.93
2017-07-16T03:11:57.474Z,10.17
2017-07-16T03:14:24.563Z,8.60
2017-07-16T03:16:50.940Z,8.03
2017-07-16T03:19:18.018Z,9.93
2017-07-16T03:21:44.422Z,6.10
2017-07-16T03:24:11.537Z,11.83
2017-07-16T03:26:38.149Z,8.90
2017-07-16T03:29:04.516Z,6.00
2017-07-16T03:31:30.861Z,8.20
2017-07-16T03:33:58.168Z,7.80
2017-07-16T03:36:24.511Z,6.80
2017-07-16T03:38:50.884Z,8.17
2017-07-16T03:41:17.277Z,10.43
2017-07-16T03:43:43.660Z,9.83
2017-07-16T03:46:09.998Z,12.77
2017-07-16T03:48:36.353Z,10.07
2017-07-16T03:51:02.750Z,8.60
2017-07-16T03:53:29.110Z,13.70
2017-07-16T03:55:55.451Z,12.57
2017-07-16T03:58:21.832Z,11.87
2017-07-16T04:00:48.148Z,6.50
2017-07-16T04:03:14.531Z,12.87
2017-07-16T04:05:40.900Z,10.13
2017-07-16T04:08:07.242Z,7.70
2017-07-16T04:10:33.654Z,8.07
2017-07-16T04:13:00.759Z,9.83
2017-07-16T04:15:27.096Z,7.30
2017-07-16T04:17:53.500Z,9.37
2017-07-16T04:20:19.820Z,13.90
2017-07-16T04:22:46.179Z,11.43
2017-07-16T04:25:12.550Z,14.27
2017-07-16T04:27:39.649Z,12.40
2017-07-16T04:30:06.754Z,7.67
2017-07-16T04:32:33.087Z,6.33
2017-07-16T04:34:59.458Z,8.53
2017-07-16T04:37:26.247Z,6.77
2017-07-16T04:39:52.618Z,7.00
2017-07-16T04:42:18.956Z,10.80
2017-07-16T04:44:45.304Z,12.40
2017-07-16T04:47:11.633Z,8.33
2017-07-16T04:49:37.975Z,8.00
2017-07-16T04:52:04.345Z,7.90
2017-07-16T04:54:30.699Z,9.83
2017-07-16T04:56:57.053Z,7.57
2017-07-16T04:59:23.418Z,9.90
2017-07-16T05:01:49.856Z,7.33
2017-07-16T05:04:16.336Z,10.40
2017-07-16T05:06:42.687Z,7.23
2017-07-16T05:09:09.068Z,10.80
2017-07-16T05:11:35.425Z,9.40
2017-07-16T05:14:01.798Z,6.60
2017-07-16T05:16:28.175Z,7.10
2017-07-16T05:18:54.547Z,11.67
2017-07-16T05:21:21.611Z,9.93
2017-07-16T05:23:48.019Z,8.40
2017-07-16T05:26:15.188Z,6.50
2017-07-16T05:28:42.540Z,8.20
2017-07-16T05:31:08.889Z,8.93
2017-07-16T05:33:35.288Z,7.07
2017-07-16T05:36:02.432Z,14.57
2017-07-16T05:38:29.570Z,13.20
2017-07-16T05:40:56.672Z,6.53
2017-07-16T05:43:23.034Z,11.23
2017-07-16T05:45:49.364Z,5.60
2017-07-16T05:48:16.491Z,10.37
2017-07-16T05:50:42.852Z,8.43
2017-07-16T05:53:09.260Z,6.70
2017-07-16T05:55:35.621Z,12.23
2017-07-16T05:58:02.706Z,8.73
2017-07-16T06:00:29.094Z,7.03
2017-07-16T06:02:56.231Z,13.93
2017-07-16T06:05:22.628Z,8.20
2017-07-16T06:07:48.989Z,4.47
2017-07-16T06:10:15.374Z,9.03
2017-07-16T06:12:41.734Z,5.27
2017-07-16T06:15:08.111Z,9.10
2017-07-16T06:17:34.878Z,6.90
2017-07-16T06:20:02.259Z,7.33
2017-07-16T06:22:28.720Z,5.87
2017-07-16T06:24:55.872Z,5.30
2017-07-16T06:27:22.989Z,4.80
2017-07-16T06:29:49.335Z,5.33
2017-07-16T06:32:15.704Z,4.60
2017-07-16T06:34:42.101Z,4.40
2017-07-16T06:37:08.559Z,4.90
2017-07-16T06:39:34.957Z,5.30
2017-07-16T06:42:02.084Z,4.67
2017-07-16T06:44:28.432Z,5.27
2017-07-16T06:46:54.783Z,8.17
2017-07-16T06:49:21.898Z,5.10
2017-07-16T06:51:48.258Z,5.37
2017-07-16T06:54:14.626Z,5.70
2017-07-16T06:56:40.984Z,4.33
2017-07-16T06:59:08.071Z,6.53
2017-07-16T07:01:35.397Z,5.33
2017-07-16T07:04:01.823Z,4.80
2017-07-16T07:06:28.976Z,4.80
2017-07-16T07:08:55.293Z,7.37
2017-07-16T07:11:21.710Z,8.17
2017-07-16T07:13:48.176Z,9.60
2017-07-16T07:16:22.302Z,7.40
2017-07-16T07:18:49.362Z,6.50
2017-07-16T07:21:15.749Z,8.83
2017-07-16T07:23:42.112Z,6.67
2017-07-16T07:26:08.491Z,7.53
2017-07-16T07:28:34.890Z,9.33
2017-07-16T07:31:01.263Z,7.37
2017-07-16T07:33:27.650Z,10.53
2017-07-16T07:35:54.068Z,5.17
2017-07-16T07:38:20.489Z,4.63
2017-07-16T07:40:47.613Z,8.47
2017-07-16T07:43:13.980Z,8.17
2017-07-16T07:45:40.362Z,6.70
2017-07-16T07:48:06.757Z,4.90
2017-07-16T07:50:33.141Z,4.73
2017-07-16T07:52:59.477Z,6.23
2017-07-16T07:55:26.645Z,12.60
2017-07-16T07:57:53.027Z,4.37
2017-07-16T08:00:19.428Z,6.40
2017-07-16T08:02:45.754Z,9.10
2017-07-16T08:05:12.160Z,8.30
2017-07-16T08:07:38.560Z,4.33
2017-07-16T08:10:05.242Z,4.13
2017-07-16T08:12:31.633Z,6.67
2017-07-16T08:14:58.011Z,5.50
2017-07-16T08:17:24.430Z,6.20
2017-07-16T08:19:50.795Z,5.20
2017-07-16T08:22:17.183Z,3.80
2017-07-16T08:24:43.568Z,5.50
2017-07-16T08:27:10.033Z,3.20
2017-07-16T08:29:37.126Z,5.20
2017-07-16T08:32:03.481Z,22.10
2017-07-16T08:34:29.892Z,33.33
2017-07-16T08:36:56.287Z,17.17
2017-07-16T08:42:22.575Z,37.07
2017-07-16T08:44:49.007Z,5.93
2017-07-16T08:47:15.822Z,3.50
2017-07-16T08:49:42.199Z,9.57
2017-07-16T08:52:08.629Z,6.33
2017-07-16T08:54:35.826Z,11.57
2017-07-16T08:57:02.254Z,3.73
2017-07-16T08:59:28.637Z,2.73
2017-07-16T09:01:55.027Z,3.93
2017-07-16T09:04:21.422Z,11.87
2017-07-16T09:06:48.513Z,4.43
2017-07-16T09:09:14.959Z,5.90
2017-07-16T09:11:41.375Z,3.40
2017-07-16T09:14:07.748Z,2.70
2017-07-16T09:16:34.190Z,3.50
2017-07-16T09:19:01.293Z,6.57
2017-07-16T09:21:30.953Z,5.17
2017-07-16T09:23:57.335Z,3.13
2017-07-16T09:26:23.736Z,4.43
2017-07-16T09:28:50.114Z,4.03
2017-07-16T09:31:16.561Z,4.40
2017-07-16T09:33:42.967Z,5.53
2017-07-16T09:36:09.463Z,6.17
2017-07-16T09:38:35.975Z,3.90
2017-07-16T09:41:02.405Z,4.10
2017-07-16T09:43:28.895Z,4.90
2017-07-16T09:45:55.424Z,3.57
2017-07-16T09:48:21.879Z,2.60
2017-07-16T09:50:48.395Z,8.83
2017-07-16T09:53:14.812Z,3.10
2017-07-16T09:55:41.411Z,2.53
2017-07-16T09:58:07.774Z,1.87
2017-07-16T10:00:34.502Z,2.60
2017-07-16T10:03:00.920Z,3.87
2017-07-16T10:05:27.269Z,10.80
2017-07-16T10:07:53.684Z,3.03
2017-07-16T10:10:20.048Z,2.60
2017-07-16T10:12:46.476Z,2.00
2017-07-16T10:15:12.844Z,1.70
2017-07-16T10:17:39.226Z,1.67
2017-07-16T10:20:05.689Z,2.10
2017-07-16T10:22:32.489Z,7.73
2017-07-16T10:24:59.690Z,1.47
2017-07-16T10:27:34.371Z,3.23
2017-07-16T10:30:00.744Z,1.40
2017-07-16T10:32:27.929Z,1.87
2017-07-16T10:34:54.393Z,1.70
2017-07-16T10:37:20.905Z,3.50
2017-07-16T10:39:47.341Z,1.93
2017-07-16T10:42:13.758Z,4.17
2017-07-16T10:44:40.196Z,2.07
2017-07-16T10:47:06.652Z,1.67
2017-07-16T10:49:33.067Z,4.03
2017-07-16T10:51:59.511Z,3.30
2017-07-16T10:54:25.973Z,1.80
2017-07-16T10:56:52.665Z,2.30
2017-07-16T10:59:19.059Z,2.27
2017-07-16T11:01:45.445Z,6.33
2017-07-16T11:04:11.830Z,3.37
2017-07-16T11:06:38.235Z,2.00
2017-07-16T11:09:05.356Z,1.90
2017-07-16T11:11:31.750Z,1.70
2017-07-16T11:13:58.107Z,2.07
2017-07-16T11:16:24.525Z,2.43
2017-07-16T11:18:50.894Z,3.67
2017-07-16T11:21:18.833Z,2.37
2017-07-16T11:23:45.218Z,2.13
2017-07-16T11:26:11.604Z,2.23
2017-07-16T11:28:37.974Z,2.03
2017-07-16T11:31:04.370Z,1.70
2017-07-16T11:33:30.885Z,1.57
2017-07-16T11:35:57.381Z,1.90
2017-07-16T11:38:23.926Z,1.40
2017-07-16T11:40:50.599Z,1.40
2017-07-16T11:43:17.018Z,2.60
2017-07-16T11:45:43.405Z,1.60
2017-07-16T11:48:09.802Z,2.17
2017-07-16T11:50:36.177Z,1.63
2017-07-16T11:53:02.806Z,3.83
2017-07-16T11:55:30.475Z,1.53
2017-07-16T11:57:56.993Z,2.07
2017-07-16T12:00:23.356Z,3.67
2017-07-16T12:02:49.722Z,3.87
2017-07-16T12:05:16.881Z,1.43
2017-07-16T12:07:43.969Z,3.93
2017-07-16T12:10:10.343Z,1.83
2017-07-16T12:12:37.465Z,1.50
2017-07-16T12:15:03.853Z,1.37
2017-07-16T12:17:30.269Z,1.40
2017-07-16T12:19:57.425Z,5.30
2017-07-16T12:22:23.794Z,2.33
2017-07-16T12:24:50.135Z,2.27
2017-07-16T12:27:17.615Z,2.97
2017-07-16T12:29:44.091Z,2.80
2017-07-16T12:32:10.468Z,1.70
2017-07-16T12:34:36.965Z,2.90
2017-07-16T12:37:03.348Z,2.87
2017-07-16T12:39:29.700Z,2.53
2017-07-16T12:41:56.053Z,1.87
2017-07-16T12:44:22.444Z,5.40
2017-07-16T12:46:49.542Z,1.60
2017-07-16T12:49:15.909Z,3.70
2017-07-16T12:51:42.311Z,2.50
2017-07-16T12:54:08.649Z,2.43
2017-07-16T12:56:35.009Z,1.70
2017-07-16T12:59:02.103Z,4.03
2017-07-16T13:01:28.477Z,2.20
2017-07-16T13:03:54.842Z,2.60
2017-07-16T13:06:21.213Z,2.00
2017-07-16T13:08:47.607Z,2.03
2017-07-16T13:11:14.018Z,2.83
2017-07-16T13:13:40.351Z,3.00
2017-07-16T13:16:06.741Z,2.53
2017-07-16T13:18:33.138Z,2.90
2017-07-16T13:20:59.513Z,1.90
2017-07-16T13:23:27.559Z,2.83
2017-07-16T13:25:53.919Z,2.27
2017-07-16T13:28:26.378Z,1.83
2017-07-16T13:30:52.759Z,1.40
2017-07-16T13:33:19.124Z,1.60
2017-07-16T13:35:45.524Z,2.97
2017-07-16T13:38:11.902Z,2.00
2017-07-16T13:40:40.002Z,1.37
2017-07-16T13:43:06.396Z,3.47
2017-07-16T13:45:32.694Z,1.63
2017-07-16T13:47:59.104Z,7.90
2017-07-16T13:50:25.456Z,1.27
2017-07-16T13:52:51.839Z,1.63
2017-07-16T13:55:18.920Z,1.60
2017-07-16T13:57:47.286Z,1.10
2017-07-16T14:00:13.745Z,3.00
2017-07-16T14:02:40.115Z,1.73
2017-07-16T14:05:08.220Z,2.23
2017-07-16T14:07:36.246Z,5.80
2017-07-16T14:10:04.335Z,2.60
2017-07-16T14:12:32.524Z,1.83
2017-07-16T14:15:00.784Z,1.30
2017-07-16T14:17:29.026Z,1.80
2017-07-16T14:19:56.860Z,3.47
2017-07-16T14:22:23.372Z,1.60
2017-07-16T14:24:50.489Z,1.57
2017-07-16T14:27:17.667Z,1.10
2017-07-16T14:29:45.279Z,2.70
2017-07-16T14:32:11.596Z,1.30
2017-07-16T14:34:39.249Z,1.50
2017-07-16T14:37:05.775Z,2.27
2017-07-16T14:39:32.145Z,2.23
2017-07-16T14:41:59.254Z,1.50
2017-07-16T14:44:25.657Z,1.93
2017-07-16T14:46:52.062Z,5.10
2017-07-16T14:49:18.417Z,2.13
2017-07-16T14:51:44.863Z,1.43
2017-07-16T14:54:11.206Z,1.10
2017-07-16T14:56:37.614Z,1.80
2017-07-16T14:59:04.000Z,1.30
2017-07-16T15:01:30.347Z,1.90
2017-07-16T15:03:57.438Z,3.60
2017-07-16T15:06:23.808Z,1.70
2017-07-16T15:08:51.158Z,1.60
2017-07-16T15:11:19.284Z,6.50
2017-07-16T15:13:47.399Z,2.03
2017-07-16T15:16:15.482Z,2.17
2017-07-16T15:18:41.843Z,1.40
2017-07-16T15:21:08.227Z,3.93
2017-07-16T15:23:37.411Z,1.53
2017-07-16T15:26:03.832Z,1.37
2017-07-16T15:28:30.211Z,1.50
2017-07-16T15:30:56.614Z,3.87
2017-07-16T15:33:23.044Z,1.33
2017-07-16T15:35:49.510Z,1.57
2017-07-16T15:38:15.938Z,2.50
2017-07-16T15:40:42.308Z,1.90
2017-07-16T15:43:08.701Z,1.30
2017-07-16T15:45:35.230Z,1.57
2017-07-16T15:48:01.709Z,2.10
2017-07-16T15:50:28.107Z,1.40
2017-07-16T15:52:54.533Z,1.30
2017-07-16T15:55:20.893Z,3.33
2017-07-16T15:57:47.307Z,2.10
2017-07-16T16:00:13.727Z,1.30
2017-07-16T16:02:41.800Z,1.70
2017-07-16T16:05:09.846Z,6.53
2017-07-16T16:07:36.232Z,1.70
2017-07-16T16:10:02.688Z,1.27
2017-07-16T16:12:30.544Z,1.47
2017-07-16T16:14:56.869Z,4.53
2017-07-16T16:17:24.970Z,1.30
2017-07-16T16:19:53.085Z,1.43
2017-07-16T16:22:19.443Z,1.43
2017-07-16T16:24:45.847Z,2.73
2017-07-16T16:27:13.945Z,1.60
2017-07-16T16:29:40.345Z,1.90
2017-07-16T16:32:08.436Z,1.10
2017-07-16T16:34:34.914Z,2.00
2017-07-16T16:37:02.982Z,1.37
2017-07-16T16:39:31.077Z,1.60
2017-07-16T16:41:59.144Z,2.37
2017-07-16T16:44:27.222Z,1.30
2017-07-16T16:46:53.577Z,2.83
2017-07-16T16:49:19.954Z,1.40
2017-07-16T16:51:46.548Z,1.23
2017-07-16T16:54:14.575Z,2.00
2017-07-16T16:56:42.602Z,1.80
2017-07-16T16:59:08.962Z,1.33
2017-07-16T17:01:38.120Z,1.70
2017-07-16T17:04:06.410Z,1.20
2017-07-16T17:06:34.461Z,1.57
2017-07-16T17:09:02.551Z,1.37
2017-07-16T17:11:30.598Z,1.30
2017-07-16T17:13:58.983Z,2.93
2017-07-16T17:16:25.345Z,1.53
2017-07-16T17:18:53.458Z,1.00
2017-07-16T17:21:19.800Z,1.37
2017-07-16T17:23:46.347Z,3.53
2017-07-16T17:26:14.462Z,1.20
2017-07-16T17:28:40.854Z,1.27
2017-07-16T17:31:08.960Z,1.90
2017-07-16T17:33:35.405Z,1.47
2017-07-16T17:36:02.109Z,1.70
2017-07-16T17:38:28.461Z,3.33
2017-07-16T17:40:55.959Z,1.40
2017-07-16T17:43:22.676Z,3.20
2017-07-16T17:45:49.111Z,1.57
2017-07-16T17:48:15.573Z,2.40
2017-07-16T17:50:41.980Z,6.20
2017-07-16T17:53:08.390Z,4.43
2017-07-16T17:55:34.782Z,1.63
2017-07-16T17:58:02.832Z,1.40
2017-07-16T18:00:29.338Z,1.70
2017-07-16T18:02:55.716Z,2.13
2017-07-16T18:05:22.841Z,2.00
2017-07-16T18:07:49.239Z,1.57
2017-07-16T18:10:16.138Z,1.50
2017-07-16T18:12:42.526Z,4.10
2017-07-16T18:15:08.902Z,4.30
2017-07-16T18:17:35.488Z,4.70
2017-07-16T18:20:02.134Z,2.10
2017-07-16T18:22:29.297Z,1.70
2017-07-16T18:24:56.473Z,1.90
2017-07-16T18:27:22.884Z,2.03
2017-07-16T18:29:49.317Z,1.80
2017-07-16T18:32:15.742Z,2.00
2017-07-16T18:34:42.246Z,1.70
2017-07-16T18:37:08.627Z,4.60
2017-07-16T18:39:35.094Z,2.10
2017-07-16T18:42:01.496Z,4.37
2017-07-16T18:44:27.887Z,4.20
2017-07-16T18:46:54.313Z,2.00
2017-07-16T18:49:20.747Z,3.40
2017-07-16T18:51:47.886Z,7.93
2017-07-16T18:54:14.367Z,1.83
2017-07-16T18:56:40.755Z,4.23
2017-07-16T18:59:15.215Z,3.33
2017-07-16T19:01:41.622Z,2.30
2017-07-16T19:04:08.305Z,4.63
2017-07-16T19:06:34.823Z,4.80
2017-07-16T19:09:08.148Z,2.23
2017-07-16T19:11:34.582Z,6.53
2017-07-16T19:14:01.010Z,2.03
2017-07-16T19:16:27.456Z,2.10
2017-07-16T19:18:53.932Z,2.17
2017-07-16T19:21:20.384Z,1.80
2017-07-16T19:23:46.758Z,1.97
2017-07-16T19:26:13.411Z,2.80
2017-07-16T19:31:11.532Z,3.67
2017-07-16T19:33:44.783Z,3.60
2017-07-16T19:36:11.351Z,3.63
2017-07-16T19:38:37.735Z,2.23
2017-07-16T19:41:04.221Z,2.30
2017-07-16T19:43:30.705Z,2.60
2017-07-16T19:45:57.268Z,2.33
2017-07-16T19:48:23.812Z,4.60
2017-07-16T19:50:51.208Z,3.80
2017-07-16T19:53:18.686Z,3.23
2017-07-16T19:55:45.268Z,2.37
2017-07-16T19:58:12.170Z,2.50
2017-07-16T20:00:38.726Z,6.60
2017-07-16T20:03:05.202Z,2.43
2017-07-16T20:05:32.365Z,3.57
2017-07-16T20:07:58.886Z,6.70
2017-07-16T20:10:25.311Z,2.33
2017-07-16T20:12:52.943Z,2.57
2017-07-16T20:15:19.338Z,4.80
2017-07-16T20:17:46.521Z,4.03
2017-07-16T20:20:13.737Z,5.93
2017-07-16T20:22:40.213Z,2.40
2017-07-16T20:25:06.652Z,5.20
2017-07-16T20:27:33.887Z,5.60
2017-07-16T20:30:00.288Z,2.77
2017-07-16T20:32:27.476Z,3.73
2017-07-16T20:34:53.901Z,2.83
2017-07-16T20:37:20.395Z,3.10
2017-07-16T20:39:46.817Z,2.50
2017-07-16T20:42:13.246Z,3.97
2017-07-16T20:44:39.748Z,2.80
2017-07-16T20:47:06.163Z,4.30
2017-07-16T20:49:33.149Z,3.13
2017-07-16T20:51:59.585Z,9.00
2017-07-16T20:54:25.942Z,3.57
2017-07-16T20:56:52.356Z,3.80
2017-07-16T20:59:19.573Z,4.27
2017-07-16T21:01:46.739Z,3.60
2017-07-16T21:04:13.237Z,3.30
2017-07-16T21:06:39.675Z,4.23
2017-07-16T21:12:06.054Z,4.80
2017-07-16T21:14:33.345Z,10.40
2017-07-16T21:16:59.825Z,5.97
2017-07-16T21:19:26.712Z,3.77
2017-07-16T21:21:53.136Z,4.90
2017-07-16T21:24:19.548Z,7.60
2017-07-16T21:26:45.964Z,6.80
2017-07-16T21:29:12.403Z,5.70
2017-07-16T21:31:39.555Z,7.97
2017-07-16T21:34:13.507Z,4.53
2017-07-16T21:36:39.913Z,6.03
2017-07-16T21:39:06.302Z,5.80
2017-07-16T21:41:32.696Z,7.30
2017-07-16T21:43:59.105Z,7.00
2017-07-16T21:46:25.536Z,5.30
2017-07-16T21:48:52.074Z,4.67
2017-07-16T21:51:18.540Z,4.93
2017-07-16T21:53:45.020Z,11.13
2017-07-16T21:56:11.453Z,10.27
2017-07-16T21:58:37.906Z,5.13
2017-07-16T22:01:05.333Z,6.60
2017-07-16T22:03:32.828Z,6.90
2017-07-16T22:05:59.316Z,7.83
2017-07-16T22:08:26.192Z,11.57
2017-07-16T22:10:52.620Z,6.93
2017-07-16T22:13:19.023Z,4.73
2017-07-16T22:15:46.210Z,6.37
2017-07-16T22:18:12.636Z,3.90
2017-07-16T22:20:39.046Z,5.50
2017-07-16T22:23:06.018Z,4.93
2017-07-16T22:25:32.373Z,5.43
2017-07-16T22:27:58.747Z,5.80
2017-07-16T22:30:25.953Z,5.67
2017-07-16T22:32:53.209Z,5.00
2017-07-16T22:45:04.534Z,7.27
2017-07-16T22:47:30.963Z,5.27
2017-07-16T22:49:57.473Z,4.50
2017-07-16T22:52:23.881Z,4.00
2017-07-16T22:54:50.257Z,4.40
2017-07-16T22:57:16.691Z,3.20
2017-07-16T22:59:43.350Z,4.17
2017-07-16T23:02:09.801Z,4.90
2017-07-16T23:04:36.877Z,10.00
2017-07-16T23:07:03.645Z,7.40
2017-07-16T23:09:30.025Z,4.50
2017-07-16T23:11:57.113Z,2.77
2017-07-16T23:14:23.560Z,3.67
2017-07-16T23:16:49.937Z,3.73
2017-07-16T23:19:16.377Z,3.37
2017-07-16T23:21:42.776Z,13.33
2017-07-16T23:24:09.158Z,4.27
2017-07-16T23:26:35.589Z,4.03
2017-07-16T23:29:02.032Z,3.70
2017-07-16T23:31:28.405Z,13.30
2017-07-16T23:33:54.782Z,2.60
2017-07-16T23:36:21.179Z,6.00
2017-07-16T23:38:47.557Z,3.93
2017-07-16T23:41:13.897Z,6.00
2017-07-16T23:43:40.252Z,3.77
2017-07-16T23:46:06.635Z,5.23
2017-07-16T23:48:32.985Z,5.03
2017-07-16T23:50:59.346Z,3.63
2017-07-16T23:53:25.807Z,3.20
2017-07-16T23:55:52.137Z,5.20
2017-07-16T23:58:18.542Z,2.83
